Time;durP1;ratioP1;P1;durP2;ratioP2;P2;SDS_P1;SDS_P2;PMS_P1;PMS_P2;Temp;Humidity;BMP_temperature;BMP_pressure;BME280_temperature;BME280_humidity;BME280_pressure;Samples;Min_cycle;Max_cycle;Signal;HPM_P1;HPM_P2
2022/04/17 00:01:55;;;;;;;5.70;2.72;;;;;;;;;;7411699;19;20014;-81
2022/04/17 00:04:20;;;;;;;5.57;2.60;;;;;;;;;;7407369;19;19995;-81
2022/04/17 00:06:46;;;;;;;7.82;3.10;;;;;;;;;;7405920;19;20022;-81
2022/04/17 00:09:11;;;;;;;4.78;2.47;;;;;;;;;;7412780;19;20010;-83
2022/04/17 00:11:37;;;;;;;7.60;2.53;;;;;;;;;;7410621;19;20007;-81
2022/04/17 00:14:03;;;;;;;6.13;2.72;;;;;;;;;;7414293;19;19998;-81
2022/04/17 00:16:28;;;;;;;5.38;1.98;;;;;;;;;;7410973;19;19987;-82
2022/04/17 00:18:53;;;;;;;4.47;2.33;;;;;;;;;;7414681;19;19994;-81
2022/04/17 00:21:20;;;;;;;6.38;2.55;;;;;;;;;;7405548;19;20359;-82
2022/04/17 00:23:46;;;;;;;5.20;2.55;;;;;;;;;;7402377;19;20022;-83
2022/04/17 00:26:11;;;;;;;5.53;2.67;;;;;;;;;;7397573;19;20022;-81
2022/04/17 00:28:36;;;;;;;7.03;2.65;;;;;;;;;;7397809;19;20342;-81
2022/04/17 00:31:02;;;;;;;4.60;2.15;;;;;;;;;;7399340;19;20003;-81
2022/04/17 00:33:27;;;;;;;3.88;2.33;;;;;;;;;;7399507;19;20028;-82
2022/04/17 00:35:52;;;;;;;4.45;2.35;;;;;;;;;;7399094;19;20098;-82
2022/04/17 00:38:17;;;;;;;3.67;2.17;;;;;;;;;;7397510;19;20431;-81
2022/04/17 00:40:43;;;;;;;2.65;1.88;;;;;;;;;;7400091;19;20365;-82
2022/04/17 00:43:22;;;;;;;4.18;1.90;;;;;;;;;;7398355;19;19998;-80
2022/04/17 00:45:47;;;;;;;5.22;1.95;;;;;;;;;;7396025;19;20003;-82
2022/04/17 00:48:12;;;;;;;4.90;2.05;;;;;;;;;;7397583;19;20023;-82
2022/04/17 00:50:37;;;;;;;3.92;1.73;;;;;;;;;;7398696;19;19994;-82
2022/04/17 00:53:03;;;;;;;4.65;2.10;;;;;;;;;;7398385;19;20478;-82
2022/04/17 00:55:28;;;;;;;2.47;1.35;;;;;;;;;;7397076;19;20002;-81
2022/04/17 00:57:54;;;;;;;3.85;1.48;;;;;;;;;;7397513;19;20113;-81
2022/04/17 01:00:19;;;;;;;2.15;1.25;;;;;;;;;;7396486;19;20442;-82
2022/04/17 01:02:44;;;;;;;3.38;1.80;;;;;;;;;;7400370;19;20002;-81
2022/04/17 01:05:10;;;;;;;2.03;1.50;;;;;;;;;;7400141;19;19999;-81
2022/04/17 01:07:37;;;;;;;4.70;1.65;;;;;;;;;;7396036;19;20009;-82
2022/04/17 01:10:03;;;;;;;2.67;1.65;;;;;;;;;;7396191;19;20007;-82
2022/04/17 01:12:29;;;;;;;2.83;1.80;;;;;;;;;;7397444;19;20490;-82
2022/04/17 01:14:54;;;;;;;1.92;1.25;;;;;;;;;;7401646;19;20010;-82
2022/04/17 01:17:20;;;;;;;2.58;1.20;;;;;;;;;;7393560;19;20015;-81
2022/04/17 01:19:46;;;;;;;2.95;1.42;;;;;;;;;;7395216;19;19994;-82
2022/04/17 01:22:12;;;;;;;3.00;1.52;;;;;;;;;;7397491;19;20386;-82
2022/04/17 01:27:24;;;;;;;2.73;1.37;;;;;;;;;;7394474;19;20009;-81
2022/04/17 01:29:51;;;;;;;2.25;1.30;;;;;;;;;;7396473;19;20011;-82
2022/04/17 01:32:17;;;;;;;2.78;1.52;;;;;;;;;;7396052;19;20821;-82
2022/04/17 01:34:43;;;;;;;2.17;1.25;;;;;;;;;;7397773;19;20003;-82
2022/04/17 01:37:08;;;;;;;2.97;1.85;;;;;;;;;;7394124;19;20102;-82
2022/04/17 01:39:34;;;;;;;3.22;1.48;;;;;;;;;;7393722;19;20103;-82
2022/04/17 01:41:59;;;;;;;2.22;1.48;;;;;;;;;;7397745;19;20458;-82
2022/04/17 01:44:28;;;;;;;3.30;1.70;;;;;;;;;;7395899;19;20389;-81
2022/04/17 01:46:54;;;;;;;1.45;1.05;;;;;;;;;;7395039;19;20007;-81
2022/04/17 01:49:20;;;;;;;2.13;1.15;;;;;;;;;;7395739;19;20054;-81
2022/04/17 01:51:47;;;;;;;3.78;1.50;;;;;;;;;;7398880;19;20011;-81
2022/04/17 01:54:18;;;;;;;3.88;2.08;;;;;;;;;;7400056;19;19999;-81
2022/04/17 01:56:47;;;;;;;5.30;1.70;;;;;;;;;;7394769;19;19994;-81
2022/04/17 01:59:13;;;;;;;2.80;1.45;;;;;;;;;;7395799;19;20522;-81
2022/04/17 02:01:39;;;;;;;4.15;1.67;;;;;;;;;;7396802;19;19990;-82
2022/04/17 02:04:06;;;;;;;1.88;1.20;;;;;;;;;;7398363;19;20378;-82
2022/04/17 02:06:32;;;;;;;3.13;1.48;;;;;;;;;;7395878;19;20342;-82
2022/04/17 02:08:58;;;;;;;4.38;1.92;;;;;;;;;;7395720;19;20007;-81
2022/04/17 02:11:26;;;;;;;2.35;1.35;;;;;;;;;;7396545;19;20007;-81
2022/04/17 02:13:51;;;;;;;3.45;1.77;;;;;;;;;;7397141;19;19998;-81
2022/04/17 02:16:17;;;;;;;2.65;1.90;;;;;;;;;;7395236;19;19999;-81
2022/04/17 02:18:47;;;;;;;2.97;1.60;;;;;;;;;;7398824;19;20002;-82
2022/04/17 02:21:13;;;;;;;4.32;1.75;;;;;;;;;;7397657;19;20019;-81
2022/04/17 02:23:40;;;;;;;3.90;1.80;;;;;;;;;;7396901;19;20345;-82
2022/04/17 02:26:06;;;;;;;2.97;1.58;;;;;;;;;;7397799;19;20017;-81
2022/04/17 02:28:34;;;;;;;3.63;1.75;;;;;;;;;;7403600;19;20321;-82
2022/04/17 02:31:03;;;;;;;2.33;1.30;;;;;;;;;;7420948;19;20010;-82
2022/04/17 02:33:29;;;;;;;3.72;1.58;;;;;;;;;;7423688;19;19983;-82
2022/04/17 02:35:54;;;;;;;3.15;1.67;;;;;;;;;;7425791;19;20594;-82
2022/04/17 02:38:19;;;;;;;3.63;1.88;;;;;;;;;;7423672;19;19999;-82
2022/04/17 02:40:45;;;;;;;2.35;1.67;;;;;;;;;;7419387;19;20005;-81
2022/04/17 02:43:11;;;;;;;3.83;1.42;;;;;;;;;;7397246;19;20003;-82
2022/04/17 02:45:36;;;;;;;5.55;1.77;;;;;;;;;;7394082;19;20094;-81
2022/04/17 02:48:01;;;;;;;5.28;1.80;;;;;;;;;;7395359;19;20010;-82
2022/04/17 02:50:26;;;;;;;2.97;1.90;;;;;;;;;;7393419;19;20329;-81
2022/04/17 02:52:55;;;;;;;3.88;1.60;;;;;;;;;;7392661;19;20014;-82
2022/04/17 02:55:21;;;;;;;5.35;1.40;;;;;;;;;;7394301;19;20024;-81
2022/04/17 02:57:46;;;;;;;4.22;1.70;;;;;;;;;;7393681;19;19999;-81
2022/04/17 03:00:12;;;;;;;2.47;1.48;;;;;;;;;;7394185;19;20605;-82
2022/04/17 03:05:38;;;;;;;3.97;1.80;;;;;;;;;;7394422;19;20011;-81
2022/04/17 03:08:09;;;;;;;1.73;1.42;;;;;;;;;;7395236;19;20461;-82
2022/04/17 03:10:37;;;;;;;3.67;1.88;;;;;;;;;;7396129;19;20018;-81
2022/04/17 03:13:06;;;;;;;2.38;1.40;;;;;;;;;;7394837;19;20013;-81
2022/04/17 03:15:31;;;;;;;3.13;1.67;;;;;;;;;;7395591;19;20006;-81
2022/04/17 03:17:58;;;;;;;4.75;2.00;;;;;;;;;;7394329;19;20007;-81
2022/04/17 03:20:24;;;;;;;5.05;1.80;;;;;;;;;;7393431;19;20550;-82
2022/04/17 03:22:50;;;;;;;2.15;1.27;;;;;;;;;;7394832;19;20002;-80
2022/04/17 03:25:15;;;;;;;4.05;1.40;;;;;;;;;;7393995;19;20005;-81
2022/04/17 03:27:43;;;;;;;2.92;1.63;;;;;;;;;;7397465;19;20010;-81
2022/04/17 03:30:09;;;;;;;2.60;1.13;;;;;;;;;;7391041;19;19990;-82
2022/04/17 03:32:35;;;;;;;2.55;1.50;;;;;;;;;;7396857;19;20003;-82
2022/04/17 03:35:00;;;;;;;3.13;1.55;;;;;;;;;;7394338;19;20010;-82
2022/04/17 03:37:25;;;;;;;2.00;1.30;;;;;;;;;;7391246;19;19991;-82
2022/04/17 03:39:52;;;;;;;3.15;1.60;;;;;;;;;;7393485;19;19998;-82
2022/04/17 03:42:18;;;;;;;2.58;1.27;;;;;;;;;;7394078;19;19994;-81
2022/04/17 03:44:44;;;;;;;2.78;1.50;;;;;;;;;;7395408;19;20011;-81
2022/04/17 03:47:09;;;;;;;1.88;1.40;;;;;;;;;;7392134;19;20082;-81
2022/04/17 03:49:34;;;;;;;3.05;1.50;;;;;;;;;;7392882;19;20001;-81
2022/04/17 03:52:02;;;;;;;3.78;1.83;;;;;;;;;;7392551;19;20006;-81
2022/04/17 03:54:27;;;;;;;3.33;1.35;;;;;;;;;;7391990;19;20009;-82
2022/04/17 03:56:53;;;;;;;2.97;1.48;;;;;;;;;;7393100;19;20461;-81
2022/04/17 03:59:18;;;;;;;3.00;1.45;;;;;;;;;;7393345;19;19999;-81
2022/04/17 04:01:46;;;;;;;4.95;1.80;;;;;;;;;;7395577;19;20038;-82
2022/04/17 04:04:11;;;;;;;2.95;1.60;;;;;;;;;;7393316;19;20483;-82
2022/04/17 04:06:36;;;;;;;5.25;1.90;;;;;;;;;;7392922;19;19987;-82
2022/04/17 04:09:02;;;;;;;3.33;1.48;;;;;;;;;;7393044;19;20475;-82
2022/04/17 04:11:28;;;;;;;6.88;1.88;;;;;;;;;;7392735;19;20002;-80
2022/04/17 04:13:56;;;;;;;3.35;1.77;;;;;;;;;;7393275;19;20488;-81
2022/04/17 04:16:22;;;;;;;3.58;1.40;;;;;;;;;;7393595;19;20021;-82
2022/04/17 04:18:47;;;;;;;3.25;1.73;;;;;;;;;;7392792;19;20062;-81
2022/04/17 04:21:12;;;;;;;3.92;1.90;;;;;;;;;;7397366;19;20038;-82
2022/04/17 04:23:39;;;;;;;3.72;1.88;;;;;;;;;;7396354;19;20462;-82
2022/04/17 04:26:04;;;;;;;3.50;2.17;;;;;;;;;;7393324;19;20003;-82
2022/04/17 04:28:34;;;;;;;3.80;1.60;;;;;;;;;;7390760;19;20005;-81
2022/04/17 04:31:05;;;;;;;3.75;1.80;;;;;;;;;;7391443;19;20006;-81
2022/04/17 04:33:31;;;;;;;3.60;1.35;;;;;;;;;;7393819;19;20397;-81
2022/04/17 04:35:58;;;;;;;3.90;1.92;;;;;;;;;;7392238;19;20101;-82
2022/04/17 04:38:24;;;;;;;4.18;1.48;;;;;;;;;;7392652;19;20002;-82
2022/04/17 04:40:49;;;;;;;2.75;1.45;;;;;;;;;;7390733;19;20012;-81
2022/04/17 04:43:17;;;;;;;3.72;1.75;;;;;;;;;;7397979;19;20478;-82
2022/04/17 04:51:10;;;;;;;2.78;1.52;;;;;;;;;;7400864;19;20392;-82
2022/04/17 04:53:35;;;;;;;5.13;1.67;;;;;;;;;;7398540;19;19995;-82
2022/04/17 04:56:01;;;;;;;5.35;1.95;;;;;;;;;;7395845;19;19999;-82
2022/04/17 04:58:26;;;;;;;5.60;1.63;;;;;;;;;;7398128;19;20006;-82
2022/04/17 05:00:51;;;;;;;3.25;1.70;;;;;;;;;;7397696;19;20453;-81
2022/04/17 05:03:16;;;;;;;3.28;1.77;;;;;;;;;;7393187;19;20078;-79
2022/04/17 05:05:42;;;;;;;4.50;1.45;;;;;;;;;;7397239;19;19994;-80
2022/04/17 05:08:07;;;;;;;4.18;1.60;;;;;;;;;;7399010;19;20010;-82
2022/04/17 05:10:32;;;;;;;3.15;1.38;;;;;;;;;;7397163;19;20096;-81
2022/04/17 05:12:58;;;;;;;3.00;1.50;;;;;;;;;;7395422;19;20002;-81
2022/04/17 05:15:23;;;;;;;4.90;1.90;;;;;;;;;;7395275;19;20020;-81
2022/04/17 05:17:48;;;;;;;3.78;1.60;;;;;;;;;;7395552;19;19994;-81
2022/04/17 05:20:14;;;;;;;2.50;1.23;;;;;;;;;;7396474;19;20002;-81
2022/04/17 05:22:40;;;;;;;3.70;1.15;;;;;;;;;;7398295;19;20117;-81
2022/04/17 05:25:05;;;;;;;2.85;1.20;;;;;;;;;;7395079;19;19998;-81
2022/04/17 05:27:31;;;;;;;3.83;1.33;;;;;;;;;;7395136;19;20010;-81
2022/04/17 05:29:56;;;;;;;3.35;1.73;;;;;;;;;;7395459;19;20027;-81
2022/04/17 05:32:21;;;;;;;2.13;1.30;;;;;;;;;;7395936;19;20023;-81
2022/04/17 05:34:46;;;;;;;3.30;1.42;;;;;;;;;;7395415;19;20481;-81
2022/04/17 05:37:12;;;;;;;2.90;1.55;;;;;;;;;;7393363;19;19994;-82
2022/04/17 05:39:37;;;;;;;2.85;1.35;;;;;;;;;;7395992;19;20384;-81
2022/04/17 05:42:03;;;;;;;5.35;1.73;;;;;;;;;;7395668;19;20005;-82
2022/04/17 05:44:29;;;;;;;2.63;1.42;;;;;;;;;;7394617;19;19995;-82
2022/04/17 05:46:56;;;;;;;2.92;1.40;;;;;;;;;;7392655;19;20508;-81
2022/04/17 05:49:21;;;;;;;2.95;1.17;;;;;;;;;;7394054;19;20009;-81
2022/04/17 05:51:47;;;;;;;3.38;1.52;;;;;;;;;;7396130;19;20010;-82
2022/04/17 05:54:13;;;;;;;2.90;1.45;;;;;;;;;;7396132;19;20476;-81
2022/04/17 05:56:38;;;;;;;2.08;1.33;;;;;;;;;;7393253;19;20487;-82
2022/04/17 05:59:05;;;;;;;2.50;1.60;;;;;;;;;;7393151;19;20006;-81
2022/04/17 06:01:30;;;;;;;3.40;1.98;;;;;;;;;;7395182;19;20044;-82
2022/04/17 06:03:56;;;;;;;3.53;1.80;;;;;;;;;;7391868;19;20006;-81
2022/04/17 06:06:21;;;;;;;3.20;1.42;;;;;;;;;;7394323;19;19999;-81
2022/04/17 06:08:47;;;;;;;3.20;1.67;;;;;;;;;;7393983;19;20400;-81
2022/04/17 06:11:13;;;;;;;4.88;1.42;;;;;;;;;;7397967;19;20010;-81
2022/04/17 06:13:38;;;;;;;2.63;1.23;;;;;;;;;;7396240;19;20029;-81
2022/04/17 06:16:04;;;;;;;3.42;1.58;;;;;;;;;;7394810;19;20391;-82
2022/04/17 06:18:29;;;;;;;4.10;1.60;;;;;;;;;;7394445;19;19995;-81
2022/04/17 06:20:54;;;;;;;2.10;1.30;;;;;;;;;;7395446;19;20015;-81
2022/04/17 06:23:20;;;;;;;2.53;1.30;;;;;;;;;;7396929;19;20505;-82
2022/04/17 06:25:45;;;;;;;1.70;1.17;;;;;;;;;;7394201;19;20141;-81
2022/04/17 06:28:11;;;;;;;2.97;1.50;;;;;;;;;;7396510;19;20015;-81
2022/04/17 06:30:36;;;;;;;1.67;1.13;;;;;;;;;;7396437;19;20413;-81
2022/04/17 06:33:02;;;;;;;3.33;1.48;;;;;;;;;;7399132;19;20059;-82
2022/04/17 06:35:27;;;;;;;3.72;1.30;;;;;;;;;;7393799;19;20010;-82
2022/04/17 06:37:58;;;;;;;4.63;1.65;;;;;;;;;;7394193;19;20003;-82
2022/04/17 06:40:24;;;;;;;4.32;1.40;;;;;;;;;;7393900;19;20009;-82
2022/04/17 06:42:51;;;;;;;2.13;1.20;;;;;;;;;;7397545;19;19995;-82
2022/04/17 06:45:17;;;;;;;2.55;1.33;;;;;;;;;;7395105;19;20018;-83
2022/04/17 06:47:43;;;;;;;14.20;3.75;;;;;;;;;;7393712;19;19999;-81
2022/04/17 06:50:09;;;;;;;2.40;1.50;;;;;;;;;;7392502;19;20009;-80
2022/04/17 06:52:35;;;;;;;2.65;1.40;;;;;;;;;;7395073;19;20027;-81
2022/04/17 06:55:01;;;;;;;2.95;1.40;;;;;;;;;;7395900;19;19995;-81
2022/04/17 06:57:28;;;;;;;3.80;1.23;;;;;;;;;;7394271;19;20558;-81
2022/04/17 06:59:53;;;;;;;1.40;1.15;;;;;;;;;;7396333;19;20045;-81
2022/04/17 07:02:18;;;;;;;1.48;1.27;;;;;;;;;;7391113;19;20908;-80
2022/04/17 07:04:44;;;;;;;2.08;1.20;;;;;;;;;;7394318;19;19998;-80
2022/04/17 07:07:09;;;;;;;1.60;1.08;;;;;;;;;;7402575;19;20019;-80
2022/04/17 07:09:34;;;;;;;2.03;1.40;;;;;;;;;;7393482;19;20035;-80
2022/04/17 07:11:59;;;;;;;3.70;1.40;;;;;;;;;;7392587;19;20021;-80
2022/04/17 07:14:25;;;;;;;4.85;1.60;;;;;;;;;;7394012;19;20009;-81
2022/04/17 07:16:50;;;;;;;1.73;1.10;;;;;;;;;;7392496;19;20349;-81
2022/04/17 07:19:16;;;;;;;6.00;2.05;;;;;;;;;;7394894;19;20018;-81
2022/04/17 07:21:42;;;;;;;2.47;1.38;;;;;;;;;;7396119;19;20074;-80
2022/04/17 07:24:07;;;;;;;3.33;1.58;;;;;;;;;;7395168;19;20610;-81
2022/04/17 07:26:32;;;;;;;4.53;1.77;;;;;;;;;;7390777;19;19991;-80
2022/04/17 07:28:58;;;;;;;2.53;1.52;;;;;;;;;;7390394;19;20006;-80
2022/04/17 07:31:23;;;;;;;3.53;1.50;;;;;;;;;;7392792;19;20002;-81
2022/04/17 07:33:48;;;;;;;2.53;1.63;;;;;;;;;;7392593;19;20010;-80
2022/04/17 07:36:14;;;;;;;3.60;1.55;;;;;;;;;;7390574;19;20002;-81
2022/04/17 07:38:39;;;;;;;2.50;1.15;;;;;;;;;;7392081;19;19998;-80
2022/04/17 07:41:04;;;;;;;2.13;1.45;;;;;;;;;;7392152;19;20005;-80
2022/04/17 07:43:29;;;;;;;5.47;1.88;;;;;;;;;;7391719;19;19999;-80
2022/04/17 07:45:55;;;;;;;3.63;1.95;;;;;;;;;;7390041;19;20082;-80
2022/04/17 07:48:20;;;;;;;2.85;1.42;;;;;;;;;;7387987;19;20003;-81
2022/04/17 07:50:45;;;;;;;1.85;1.42;;;;;;;;;;7394405;19;20494;-81
2022/04/17 07:53:11;;;;;;;3.38;1.70;;;;;;;;;;7397230;19;20029;-81
2022/04/17 07:55:36;;;;;;;2.75;1.60;;;;;;;;;;7396297;19;20022;-81
2022/04/17 07:58:22;;;;;;;2.65;1.35;;;;;;;;;;7392235;19;20062;-80
2022/04/17 08:01:03;;;;;;;2.90;1.40;;;;;;;;;;7392097;19;20098;-81
2022/04/17 08:03:35;;;;;;;5.25;2.75;;;;;;;;;;7390302;19;20002;-81
2022/04/17 08:06:02;;;;;;;2.88;1.40;;;;;;;;;;7388275;19;20007;-80
2022/04/17 08:08:28;;;;;;;3.63;1.83;;;;;;;;;;7392949;19;20010;-81
2022/04/17 08:10:54;;;;;;;3.67;1.35;;;;;;;;;;7390758;19;20017;-81
2022/04/17 08:13:19;;;;;;;1.83;1.27;;;;;;;;;;7389982;19;19995;-81
2022/04/17 08:15:44;;;;;;;2.88;1.33;;;;;;;;;;7389031;19;20490;-81
2022/04/17 08:18:10;;;;;;;3.50;1.60;;;;;;;;;;7395484;19;19991;-81
2022/04/17 08:20:35;;;;;;;2.20;1.20;;;;;;;;;;7396350;19;19990;-80
2022/04/17 08:23:01;;;;;;;3.80;1.58;;;;;;;;;;7398253;19;20014;-81
2022/04/17 08:25:26;;;;;;;9.45;1.33;;;;;;;;;;7394022;19;20006;-80
2022/04/17 08:27:53;;;;;;;2.05;1.40;;;;;;;;;;7395701;19;20002;-80
2022/04/17 08:30:21;;;;;;;3.30;1.48;;;;;;;;;;7395001;19;20002;-80
2022/04/17 08:32:46;;;;;;;2.47;1.30;;;;;;;;;;7398325;19;20007;-81
2022/04/17 08:35:11;;;;;;;2.90;1.88;;;;;;;;;;7395098;19;20015;-80
2022/04/17 08:37:37;;;;;;;3.03;1.35;;;;;;;;;;7396836;19;20078;-80
2022/04/17 08:40:03;;;;;;;2.50;1.30;;;;;;;;;;7396806;19;20019;-81
2022/04/17 08:42:31;;;;;;;1.65;1.30;;;;;;;;;;7400397;19;20058;-80
2022/04/17 08:44:56;;;;;;;1.30;1.00;;;;;;;;;;7392940;19;20130;-81
2022/04/17 08:47:21;;;;;;;2.05;1.30;;;;;;;;;;7392978;19;20066;-80
2022/04/17 08:49:47;;;;;;;2.05;1.40;;;;;;;;;;7393642;19;19995;-81
2022/04/17 08:52:15;;;;;;;1.55;1.42;;;;;;;;;;7395447;19;19999;-81
2022/04/17 08:54:43;;;;;;;3.72;1.42;;;;;;;;;;7394007;19;20047;-81
2022/04/17 08:57:09;;;;;;;1.65;1.30;;;;;;;;;;7393787;19;20013;-81
2022/04/17 08:59:34;;;;;;;1.60;1.30;;;;;;;;;;7393979;19;20311;-80
2022/04/17 09:02:10;;;;;;;1.60;1.50;;;;;;;;;;7395074;19;20427;-80
2022/04/17 09:04:38;;;;;;;4.05;1.50;;;;;;;;;;7397161;19;20429;-81
2022/04/17 09:07:06;;;;;;;2.55;1.65;;;;;;;;;;7395874;19;19999;-81
2022/04/17 09:09:32;;;;;;;5.55;2.35;;;;;;;;;;7395176;19;20538;-80
2022/04/17 09:11:57;;;;;;;2.85;1.20;;;;;;;;;;7395953;19;19995;-81
2022/04/17 09:14:23;;;;;;;2.20;1.42;;;;;;;;;;7399116;19;20018;-80
2022/04/17 09:16:51;;;;;;;2.83;1.30;;;;;;;;;;7391675;19;19999;-81
2022/04/17 09:19:18;;;;;;;2.75;1.40;;;;;;;;;;7394104;19;20441;-81
2022/04/17 09:21:44;;;;;;;5.95;1.42;;;;;;;;;;7399629;19;20010;-81
2022/04/17 09:24:19;;;;;;;2.17;1.20;;;;;;;;;;7398717;19;20008;-81
2022/04/17 09:26:53;;;;;;;3.10;1.30;;;;;;;;;;7394937;19;20023;-81
2022/04/17 09:29:25;;;;;;;2.13;1.55;;;;;;;;;;7393443;19;20023;-81
2022/04/17 09:31:58;;;;;;;1.95;1.27;;;;;;;;;;7415892;19;20007;-81
2022/04/17 09:34:25;;;;;;;2.33;1.38;;;;;;;;;;7422658;19;19990;-81
2022/04/17 09:37:00;;;;;;;4.00;1.23;;;;;;;;;;7421289;19;19998;-81
2022/04/17 09:39:35;;;;;;;4.68;1.52;;;;;;;;;;7421889;19;19990;-80
2022/04/17 09:42:02;;;;;;;7.30;2.17;;;;;;;;;;7410517;19;20466;-80
2022/04/17 09:44:46;;;;;;;2.80;2.05;;;;;;;;;;7393634;19;20018;-81
2022/04/17 09:47:20;;;;;;;2.30;1.55;;;;;;;;;;7391877;19;20002;-81
2022/04/17 09:49:58;;;;;;;3.70;1.23;;;;;;;;;;7391794;19;20035;-81
2022/04/17 09:52:31;;;;;;;1.95;1.30;;;;;;;;;;7396231;19;20164;-80
2022/04/17 09:55:01;;;;;;;1.75;1.35;;;;;;;;;;7397388;19;20024;-80
2022/04/17 09:57:39;;;;;;;1.30;1.20;;;;;;;;;;7391127;19;20003;-80
2022/04/17 10:00:26;;;;;;;2.45;1.35;;;;;;;;;;7392015;19;20015;-80
2022/04/17 10:02:52;;;;;;;2.80;1.65;;;;;;;;;;7393291;19;20002;-80
2022/04/17 10:05:19;;;;;;;2.67;1.70;;;;;;;;;;7391011;19;20001;-80
2022/04/17 10:07:46;;;;;;;1.50;1.35;;;;;;;;;;7396995;19;20018;-80
2022/04/17 10:10:13;;;;;;;2.03;1.38;;;;;;;;;;7392191;19;20050;-80
2022/04/17 10:12:44;;;;;;;1.73;1.20;;;;;;;;;;7392783;19;20006;-80
2022/04/17 10:15:11;;;;;;;2.75;1.35;;;;;;;;;;7390453;19;19998;-81
2022/04/17 10:17:38;;;;;;;3.15;1.50;;;;;;;;;;7394171;19;20010;-81
2022/04/17 10:20:08;;;;;;;3.65;1.38;;;;;;;;;;7391709;19;20302;-80
2022/04/17 10:22:36;;;;;;;1.92;1.33;;;;;;;;;;7392230;19;20002;-80
2022/04/17 10:25:04;;;;;;;6.50;1.80;;;;;;;;;;7391878;19;20007;-80
2022/04/17 10:27:40;;;;;;;1.70;1.35;;;;;;;;;;7391398;19;20007;-80
2022/04/17 10:30:16;;;;;;;2.33;1.40;;;;;;;;;;7390583;19;20018;-81
2022/04/17 10:33:16;;;;;;;4.32;1.45;;;;;;;;;;7391284;19;20013;-80
2022/04/17 10:36:15;;;;;;;3.35;1.38;;;;;;;;;;7390788;19;20026;-80
2022/04/17 10:38:49;;;;;;;1.48;1.30;;;;;;;;;;7389347;19;20046;-80
2022/04/17 10:41:15;;;;;;;3.00;1.48;;;;;;;;;;7391436;19;20026;-81
2022/04/17 10:43:46;;;;;;;2.55;1.70;;;;;;;;;;7394023;19;20082;-80
2022/04/17 10:46:17;;;;;;;5.78;1.35;;;;;;;;;;7388508;19;20070;-80
2022/04/17 10:48:44;;;;;;;2.08;1.30;;;;;;;;;;7388816;19;20014;-80
2022/04/17 10:51:20;;;;;;;4.43;1.75;;;;;;;;;;7390103;19;20006;-80
2022/04/17 10:54:06;;;;;;;1.30;1.13;;;;;;;;;;7390786;19;20084;-80
2022/04/17 10:56:54;;;;;;;1.48;1.20;;;;;;;;;;7391896;19;19994;-80
2022/04/17 10:59:22;;;;;;;2.72;1.60;;;;;;;;;;7389508;19;20006;-81
2022/04/17 11:02:00;;;;;;;2.90;1.40;;;;;;;;;;7391340;19;20010;-80
2022/04/17 11:04:30;;;;;;;2.10;1.20;;;;;;;;;;7389139;19;20011;-80
2022/04/17 11:07:05;;;;;;;2.45;1.30;;;;;;;;;;7390114;19;20114;-80
2022/04/17 11:09:31;;;;;;;3.75;1.83;;;;;;;;;;7388891;19;20029;-80
2022/04/17 11:12:18;;;;;;;1.35;1.17;;;;;;;;;;7389532;19;20006;-80
2022/04/17 11:14:55;;;;;;;1.88;1.10;;;;;;;;;;7389543;19;20388;-80
2022/04/17 11:17:22;;;;;;;2.10;1.42;;;;;;;;;;7388031;19;20001;-80
2022/04/17 11:19:48;;;;;;;3.10;1.27;;;;;;;;;;7388353;19;20054;-81
2022/04/17 11:22:16;;;;;;;4.15;1.40;;;;;;;;;;7392674;19;19999;-79
2022/04/17 11:25:02;;;;;;;3.30;1.30;;;;;;;;;;7393930;19;20378;-80
2022/04/17 11:27:45;;;;;;;5.00;1.25;;;;;;;;;;7388594;19;20019;-80
2022/04/17 11:30:13;;;;;;;2.22;1.20;;;;;;;;;;7388560;19;20014;-80
2022/04/17 11:32:38;;;;;;;2.25;1.30;;;;;;;;;;7389686;19;20003;-80
2022/04/17 11:35:05;;;;;;;2.85;1.42;;;;;;;;;;7389889;19;20058;-80
2022/04/17 11:37:31;;;;;;;1.65;1.25;;;;;;;;;;7388401;19;19994;-81
2022/04/17 11:39:58;;;;;;;2.15;1.48;;;;;;;;;;7388439;19;20063;-80
2022/04/17 11:42:28;;;;;;;1.17;1.08;;;;;;;;;;7389192;19;20021;-80
2022/04/17 11:44:53;;;;;;;4.60;1.35;;;;;;;;;;7388834;19;20003;-80
2022/04/17 11:47:21;;;;;;;3.65;1.67;;;;;;;;;;7387210;19;20015;-80
2022/04/17 11:49:48;;;;;;;5.30;1.80;;;;;;;;;;7387945;19;20002;-80
2022/04/17 11:52:15;;;;;;;3.05;1.30;;;;;;;;;;7389761;19;20366;-80
2022/04/17 11:54:41;;;;;;;2.78;1.58;;;;;;;;;;7392966;19;20006;-80
2022/04/17 11:57:07;;;;;;;2.53;1.40;;;;;;;;;;7389889;19;19995;-80
2022/04/17 11:59:54;;;;;;;2.17;1.30;;;;;;;;;;7388210;19;20083;-80
2022/04/17 12:02:21;;;;;;;2.88;1.15;;;;;;;;;;7388036;19;20023;-80
2022/04/17 12:04:51;;;;;;;1.83;1.30;;;;;;;;;;7387290;19;20323;-80
2022/04/17 12:07:21;;;;;;;1.02;0.93;;;;;;;;;;7388941;19;20019;-80
2022/04/17 12:09:47;;;;;;;2.75;1.38;;;;;;;;;;7386857;19;19995;-80
2022/04/17 12:12:17;;;;;;;1.70;1.20;;;;;;;;;;7386481;19;20003;-80
2022/04/17 12:14:43;;;;;;;2.80;1.25;;;;;;;;;;7388609;19;20026;-80
2022/04/17 12:17:09;;;;;;;2.00;1.20;;;;;;;;;;7386331;19;20086;-80
2022/04/17 12:19:34;;;;;;;2.63;1.10;;;;;;;;;;7387252;19;20111;-80
2022/04/17 12:22:13;;;;;;;1.92;1.20;;;;;;;;;;7386020;19;20505;-80
2022/04/17 12:24:45;;;;;;;1.42;1.00;;;;;;;;;;7387809;19;20056;-80
2022/04/17 12:27:13;;;;;;;1.10;1.00;;;;;;;;;;7386656;19;19995;-80
2022/04/17 12:29:40;;;;;;;2.67;0.98;;;;;;;;;;7389382;19;20064;-80
2022/04/17 12:32:16;;;;;;;1.92;1.13;;;;;;;;;;7389082;19;20011;-80
2022/04/17 12:34:45;;;;;;;1.13;0.90;;;;;;;;;;7388392;19;19995;-80
2022/04/17 12:37:24;;;;;;;1.75;1.10;;;;;;;;;;7386441;19;20093;-80
2022/04/17 12:39:49;;;;;;;1.73;1.15;;;;;;;;;;7387136;19;19998;-80
2022/04/17 12:42:16;;;;;;;1.25;1.08;;;;;;;;;;7392771;19;19998;-80
2022/04/17 12:44:41;;;;;;;3.83;1.10;;;;;;;;;;7391568;19;20126;-80
2022/04/17 12:47:14;;;;;;;1.52;0.98;;;;;;;;;;7386447;19;20475;-80
2022/04/17 12:49:40;;;;;;;2.05;0.90;;;;;;;;;;7390840;19;20006;-80
2022/04/17 12:52:06;;;;;;;5.75;2.97;;;;;;;;;;7389395;19;19999;-81
2022/04/17 12:54:33;;;;;;;3.22;1.30;;;;;;;;;;7389745;19;19994;-80
2022/04/17 12:57:13;;;;;;;3.20;1.42;;;;;;;;;;7387074;19;20526;-80
2022/04/17 12:59:45;;;;;;;1.85;1.20;;;;;;;;;;7388049;19;19999;-80
2022/04/17 13:02:27;;;;;;;2.42;1.10;;;;;;;;;;7388971;19;20007;-81
2022/04/17 13:04:58;;;;;;;2.22;1.20;;;;;;;;;;7396560;19;20018;-80
2022/04/17 13:07:32;;;;;;;1.77;1.30;;;;;;;;;;7391336;19;20489;-80
2022/04/17 13:10:02;;;;;;;1.55;1.05;;;;;;;;;;7393940;19;20798;-81
2022/04/17 13:12:43;;;;;;;1.70;1.10;;;;;;;;;;7393992;19;20102;-80
2022/04/17 13:15:11;;;;;;;1.52;0.98;;;;;;;;;;7393759;19;19995;-80
2022/04/17 13:17:48;;;;;;;1.05;0.75;;;;;;;;;;7391136;19;20105;-80
2022/04/17 13:20:14;;;;;;;2.45;1.25;;;;;;;;;;7394083;19;20011;-80
2022/04/17 13:22:41;;;;;;;1.05;0.95;;;;;;;;;;7400350;19;20013;-80
2022/04/17 13:25:07;;;;;;;1.60;1.00;;;;;;;;;;7393947;19;20003;-80
2022/04/17 13:27:33;;;;;;;2.15;1.10;;;;;;;;;;7392252;19;20004;-81
2022/04/17 13:29:58;;;;;;;2.60;1.00;;;;;;;;;;7392705;19;19999;-80
2022/04/17 13:32:24;;;;;;;2.58;0.98;;;;;;;;;;7395861;19;20070;-80
2022/04/17 13:34:49;;;;;;;1.88;0.90;;;;;;;;;;7397965;19;20002;-80
2022/04/17 13:39:58;;;;;;;1.63;0.90;;;;;;;;;;7395218;19;20027;-80
2022/04/17 13:42:24;;;;;;;4.53;0.90;;;;;;;;;;7392640;19;19999;-80
2022/04/17 13:44:50;;;;;;;1.92;1.00;;;;;;;;;;7391840;19;20088;-80
2022/04/17 13:47:15;;;;;;;2.00;1.10;;;;;;;;;;7390666;19;20003;-80
2022/04/17 13:49:41;;;;;;;1.73;1.08;;;;;;;;;;7391817;19;20373;-80
2022/04/17 13:52:08;;;;;;;3.30;1.02;;;;;;;;;;7396190;19;20086;-81
2022/04/17 13:54:33;;;;;;;1.95;1.20;;;;;;;;;;7392970;19;20319;-81
2022/04/17 13:56:59;;;;;;;1.30;0.75;;;;;;;;;;7391237;19;20402;-80
2022/04/17 13:59:25;;;;;;;4.47;1.15;;;;;;;;;;7394401;19;20027;-81
2022/04/17 14:01:50;;;;;;;2.03;0.80;;;;;;;;;;7392738;19;20431;-81
2022/04/17 14:04:15;;;;;;;1.58;1.10;;;;;;;;;;7392529;19;20005;-80
2022/04/17 14:06:41;;;;;;;2.05;1.10;;;;;;;;;;7393223;19;20025;-81
2022/04/17 14:09:06;;;;;;;1.02;0.85;;;;;;;;;;7391336;19;20014;-81
2022/04/17 14:11:32;;;;;;;3.80;1.42;;;;;;;;;;7399796;19;19998;-82
2022/04/17 14:13:57;;;;;;;2.45;1.20;;;;;;;;;;7394996;19;20015;-83
2022/04/17 14:16:23;;;;;;;1.33;1.10;;;;;;;;;;7394639;19;19994;-82
2022/04/17 14:18:48;;;;;;;1.20;1.08;;;;;;;;;;7393201;19;20002;-81
2022/04/17 14:21:13;;;;;;;3.00;1.23;;;;;;;;;;7393373;19;20497;-81
2022/04/17 14:23:39;;;;;;;1.63;0.90;;;;;;;;;;7397491;19;20011;-81
2022/04/17 14:26:04;;;;;;;1.00;0.90;;;;;;;;;;7390959;19;19999;-81
2022/04/17 14:28:32;;;;;;;1.42;0.93;;;;;;;;;;7388871;19;20101;-81
2022/04/17 14:30:57;;;;;;;2.05;1.15;;;;;;;;;;7391129;19;20070;-80
2022/04/17 14:33:23;;;;;;;1.83;0.93;;;;;;;;;;7391319;19;20399;-80
2022/04/17 14:35:50;;;;;;;1.95;1.38;;;;;;;;;;7390735;19;20015;-81
2022/04/17 14:38:16;;;;;;;2.10;1.17;;;;;;;;;;7390101;19;19999;-81
2022/04/17 14:40:41;;;;;;;2.42;1.00;;;;;;;;;;7393364;19;20002;-80
2022/04/17 14:43:07;;;;;;;2.42;0.98;;;;;;;;;;7395346;19;20010;-81
2022/04/17 14:45:35;;;;;;;1.35;0.90;;;;;;;;;;7390250;19;19991;-81
2022/04/17 14:48:02;;;;;;;1.48;0.95;;;;;;;;;;7392054;19;19999;-81
2022/04/17 14:50:27;;;;;;;1.95;0.95;;;;;;;;;;7390017;19;20476;-79
2022/04/17 14:52:53;;;;;;;1.77;0.90;;;;;;;;;;7390854;19;20025;-79
2022/04/17 14:55:20;;;;;;;1.45;0.77;;;;;;;;;;7392171;19;20378;-82
2022/04/17 14:57:45;;;;;;;1.63;1.08;;;;;;;;;;7390512;19;20543;-79
2022/04/17 15:00:11;;;;;;;2.17;1.00;;;;;;;;;;7393820;19;20076;-79